Time;durP1;ratioP1;P1;durP2;ratioP2;P2;SDS_P1;SDS_P2;PMS_P1;PMS_P2;Temp;Humidity;BMP_temperature;BMP_pressure;BME280_temperature;BME280_humidity;BME280_pressure;Samples;Min_cycle;Max_cycle;Signal;HPM_P1;HPM_P2
2021/07/06 00:01:55;;;;;;;22.20;21.10;;;18.50;86.60;;;;;;5057686;28;21077;-72
2021/07/06 00:04:22;;;;;;;23.07;21.60;;;18.50;86.60;;;;;;5049264;28;20825;-72
2021/07/06 00:06:50;;;;;;;22.53;21.23;;;18.40;86.70;;;;;;5049503;28;20979;-71
2021/07/06 00:09:17;;;;;;;22.80;21.57;;;18.40;86.80;;;;;;5049636;28;20450;-72
2021/07/06 00:11:45;;;;;;;22.70;21.40;;;18.40;86.70;;;;;;5047790;28;20462;-71
2021/07/06 00:14:12;;;;;;;22.13;21.00;;;18.50;86.60;;;;;;5049888;28;20562;-72
2021/07/06 00:16:38;;;;;;;21.87;20.77;;;18.40;86.70;;;;;;5047439;28;20479;-71
2021/07/06 00:19:06;;;;;;;23.30;21.70;;;18.50;86.60;;;;;;5048176;28;20447;-73
2021/07/06 00:21:33;;;;;;;22.37;20.97;;;18.40;86.70;;;;;;5058246;28;20473;-71
2021/07/06 00:24:01;;;;;;;22.00;20.70;;;18.50;86.70;;;;;;5046030;28;20468;-71
2021/07/06 00:26:28;;;;;;;21.63;20.43;;;18.40;86.80;;;;;;5047220;28;20461;-71
2021/07/06 00:28:55;;;;;;;22.37;21.10;;;18.40;86.90;;;;;;5047760;28;20895;-71
2021/07/06 00:31:22;;;;;;;21.77;20.67;;;18.40;87.00;;;;;;5051965;28;20501;-72
2021/07/06 00:33:51;;;;;;;21.50;20.30;;;18.40;86.90;;;;;;5049020;28;20836;-72
2021/07/06 00:36:18;;;;;;;22.13;20.80;;;18.30;86.90;;;;;;5047965;28;20577;-71
2021/07/06 00:38:45;;;;;;;22.70;21.30;;;18.30;86.90;;;;;;5049079;28;20451;-70
2021/07/06 00:41:13;;;;;;;22.57;21.37;;;18.30;87.00;;;;;;5047366;28;20474;-69
2021/07/06 00:43:40;;;;;;;22.67;21.40;;;18.30;87.10;;;;;;5048692;28;20531;-69
2021/07/06 00:46:07;;;;;;;22.50;21.30;;;18.30;86.80;;;;;;5048148;28;20528;-69
2021/07/06 00:48:35;;;;;;;22.57;21.37;;;18.30;87.00;;;;;;5048504;28;20813;-70
2021/07/06 00:51:02;;;;;;;22.30;21.10;;;18.30;86.80;;;;;;5062978;28;20542;-69
2021/07/06 00:53:29;;;;;;;22.70;21.50;;;18.30;86.80;;;;;;5062058;28;20449;-70
2021/07/06 00:55:57;;;;;;;23.57;21.17;;;18.30;87.00;;;;;;5055914;28;20471;-69
2021/07/06 00:58:27;;;;;;;22.20;20.63;;;18.30;87.10;;;;;;5048489;28;20472;-70
2021/07/06 01:00:55;;;;;;;22.60;21.40;;;18.30;86.90;;;;;;5055810;28;20584;-69
2021/07/06 01:03:22;;;;;;;22.17;21.07;;;18.30;87.00;;;;;;5053001;28;20446;-70
2021/07/06 01:05:50;;;;;;;22.30;21.10;;;18.30;86.80;;;;;;5047040;28;20874;-69
2021/07/06 01:08:17;;;;;;;21.73;20.63;;;18.30;86.70;;;;;;5037756;28;20460;-70
2021/07/06 01:10:44;;;;;;;22.67;21.43;;;18.30;86.60;;;;;;5054691;28;20464;-69
2021/07/06 01:13:12;;;;;;;22.60;21.40;;;18.40;86.60;;;;;;5051663;28;20551;-69
2021/07/06 01:15:41;;;;;;;22.60;21.50;;;18.40;86.70;;;;;;5046281;28;20482;-69
2021/07/06 01:18:10;;;;;;;22.20;21.10;;;18.40;86.50;;;;;;5047820;28;20477;-69
2021/07/06 01:20:39;;;;;;;22.83;21.63;;;18.40;86.30;;;;;;5053232;28;20465;-69
2021/07/06 01:23:08;;;;;;;22.97;21.67;;;18.40;86.40;;;;;;5049891;28;20461;-70
2021/07/06 01:25:36;;;;;;;23.83;22.43;;;18.40;86.40;;;;;;5050370;28;20903;-69
2021/07/06 01:28:05;;;;;;;22.50;21.30;;;18.40;86.40;;;;;;5048017;28;20542;-70
2021/07/06 01:30:32;;;;;;;23.50;22.00;;;18.40;86.40;;;;;;5053117;28;20582;-70
2021/07/06 01:32:59;;;;;;;22.60;21.50;;;18.40;86.40;;;;;;5050230;28;21004;-69
2021/07/06 01:35:26;;;;;;;23.03;21.70;;;18.40;86.30;;;;;;5050052;28;20487;-69
2021/07/06 01:37:56;;;;;;;23.50;22.10;;;18.40;86.30;;;;;;5055323;28;20841;-69
2021/07/06 01:40:26;;;;;;;22.57;21.33;;;18.40;86.30;;;;;;5050474;28;20541;-69
2021/07/06 01:42:53;;;;;;;23.50;22.20;;;18.40;86.40;;;;;;5053457;28;20529;-69
2021/07/06 01:45:23;;;;;;;22.90;21.70;;;18.40;86.30;;;;;;5049418;28;20481;-69
2021/07/06 01:47:52;;;;;;;22.60;21.40;;;18.40;86.40;;;;;;5047163;28;20466;-70
2021/07/06 01:50:20;;;;;;;22.50;21.20;;;18.30;86.50;;;;;;5046930;28;20536;-69
2021/07/06 01:52:49;;;;;;;22.17;21.07;;;18.30;86.80;;;;;;5047502;28;20471;-70
2021/07/06 01:55:17;;;;;;;22.93;21.53;;;18.30;86.70;;;;;;5048493;28;21003;-69
2021/07/06 01:57:46;;;;;;;22.13;21.00;;;18.30;86.70;;;;;;5054748;28;20817;-70
2021/07/06 02:00:16;;;;;;;23.00;21.20;;;18.20;86.90;;;;;;5047950;28;20537;-69
2021/07/06 02:02:44;;;;;;;22.57;21.37;;;18.20;86.90;;;;;;5046314;28;20495;-70
2021/07/06 02:05:28;;;;;;;22.03;20.77;;;18.20;87.00;;;;;;5045614;28;20479;-71
2021/07/06 02:07:55;;;;;;;21.30;20.20;;;18.30;86.90;;;;;;5047230;28;20941;-71
2021/07/06 02:10:23;;;;;;;22.33;20.93;;;18.20;86.80;;;;;;5050074;28;20464;-71
2021/07/06 02:12:51;;;;;;;22.80;21.40;;;18.20;86.90;;;;;;5047787;28;20557;-72
2021/07/06 02:15:19;;;;;;;22.83;21.60;;;18.20;86.90;;;;;;5049492;28;20564;-72
2021/07/06 02:17:47;;;;;;;21.93;20.80;;;18.10;87.10;;;;;;5050449;28;21008;-72
2021/07/06 02:20:17;;;;;;;21.90;20.47;;;18.20;87.00;;;;;;5049445;28;20481;-72
2021/07/06 02:22:44;;;;;;;22.70;21.30;;;18.10;87.20;;;;;;5051421;28;20570;-72
2021/07/06 02:25:13;;;;;;;21.77;20.67;;;18.00;87.30;;;;;;5048124;28;20485;-72
2021/07/06 02:27:40;;;;;;;22.77;21.47;;;18.00;87.30;;;;;;5048423;28;20585;-72
2021/07/06 02:30:11;;;;;;;22.53;21.10;;;18.00;87.50;;;;;;5049176;28;20498;-72
2021/07/06 02:32:38;;;;;;;22.40;21.10;;;18.00;87.50;;;;;;5045970;28;20898;-72
2021/07/06 02:35:06;;;;;;;22.67;21.20;;;17.90;87.60;;;;;;5043800;28;21047;-72
2021/07/06 02:37:33;;;;;;;21.83;20.73;;;17.90;87.60;;;;;;5047482;28;20474;-72
2021/07/06 02:40:00;;;;;;;22.73;21.53;;;17.90;87.70;;;;;;5047287;28;21138;-72
2021/07/06 02:42:27;;;;;;;21.57;20.47;;;18.00;87.40;;;;;;5048413;28;20821;-72
2021/07/06 02:44:57;;;;;;;21.00;19.90;;;17.90;87.60;;;;;;5048621;28;20834;-72
2021/07/06 02:47:25;;;;;;;21.43;20.33;;;17.80;87.80;;;;;;5057273;28;20535;-72
2021/07/06 02:49:52;;;;;;;22.30;21.20;;;17.80;88.00;;;;;;5050573;28;20975;-72
2021/07/06 02:52:19;;;;;;;25.20;24.00;;;17.80;88.00;;;;;;5055690;28;20968;-72
2021/07/06 02:54:46;;;;;;;22.87;21.57;;;17.80;88.00;;;;;;5048127;28;20470;-72
2021/07/06 02:57:34;;;;;;;21.50;20.40;;;17.80;88.00;;;;;;5068743;28;20519;-72
2021/07/06 03:00:02;;;;;;;22.23;20.93;;;17.80;88.00;;;;;;5051053;28;20474;-72
2021/07/06 03:02:30;;;;;;;22.50;21.00;;;17.70;88.20;;;;;;5054161;28;20497;-72
2021/07/06 03:04:57;;;;;;;21.00;19.70;;;17.80;88.20;;;;;;5049401;28;20465;-72
2021/07/06 03:07:24;;;;;;;22.37;21.17;;;17.80;88.10;;;;;;5066850;28;20809;-72
2021/07/06 03:09:50;;;;;;;22.90;21.60;;;17.80;88.10;;;;;;5048601;28;20450;-72
2021/07/06 03:12:17;;;;;;;22.63;21.03;;;17.80;88.10;;;;;;5049480;28;20453;-72
2021/07/06 03:14:44;;;;;;;22.83;21.63;;;17.80;88.00;;;;;;5048572;28;20786;-72
2021/07/06 03:17:11;;;;;;;22.73;21.43;;;17.80;87.80;;;;;;5055726;28;20909;-72
2021/07/06 03:19:39;;;;;;;22.20;21.10;;;17.80;87.90;;;;;;5050136;28;20534;-72
2021/07/06 03:22:06;;;;;;;22.03;20.83;;;17.70;88.10;;;;;;5054802;28;20762;-72
2021/07/06 03:24:33;;;;;;;22.67;21.47;;;17.80;88.00;;;;;;5058014;28;20482;-72
2021/07/06 03:27:00;;;;;;;23.00;21.70;;;17.80;87.90;;;;;;5054829;28;20457;-72
2021/07/06 03:29:27;;;;;;;24.13;22.73;;;17.70;88.00;;;;;;5050147;28;20976;-72
2021/07/06 03:31:54;;;;;;;21.87;20.60;;;17.70;88.10;;;;;;5048927;28;20532;-72
2021/07/06 03:34:21;;;;;;;22.37;21.17;;;17.70;88.00;;;;;;5049513;28;20497;-72
2021/07/06 03:36:49;;;;;;;22.70;21.47;;;17.70;87.90;;;;;;5048073;28;20552;-72
2021/07/06 03:39:17;;;;;;;28.20;26.60;;;17.70;87.90;;;;;;5059436;28;20462;-72
2021/07/06 03:41:44;;;;;;;23.57;22.17;;;17.70;87.90;;;;;;5060016;28;20473;-72
2021/07/06 03:44:11;;;;;;;22.63;21.43;;;17.80;87.80;;;;;;5048575;28;21076;-72
2021/07/06 03:46:37;;;;;;;24.20;22.90;;;17.90;87.40;;;;;;5052960;28;20539;-72
2021/07/06 03:49:05;;;;;;;25.00;23.60;;;17.90;87.20;;;;;;5050030;28;20981;-72
2021/07/06 03:51:33;;;;;;;21.77;20.57;;;18.00;87.30;;;;;;5053369;28;20747;-72
2021/07/06 03:54:02;;;;;;;22.00;20.80;;;18.00;87.40;;;;;;5048570;28;20976;-72
2021/07/06 03:56:29;;;;;;;24.37;22.97;;;18.20;87.00;;;;;;5056484;28;20565;-72
2021/07/06 03:58:56;;;;;;;23.87;22.50;;;18.30;86.50;;;;;;5053107;28;20486;-72
2021/07/06 04:01:23;;;;;;;24.87;23.47;;;18.70;85.10;;;;;;5047465;28;20463;-72
2021/07/06 04:03:50;;;;;;;29.90;28.27;;;19.20;83.20;;;;;;5049460;28;20449;-72
2021/07/06 04:06:17;;;;;;;29.33;27.83;;;19.70;81.20;;;;;;5060180;28;20824;-72
2021/07/06 04:08:44;;;;;;;26.97;25.07;;;20.00;79.70;;;;;;5054691;28;20534;-72
2021/07/06 04:11:12;;;;;;;27.27;25.67;;;20.10;79.20;;;;;;5052493;28;20541;-72
2021/07/06 04:13:39;;;;;;;26.90;25.40;;;20.20;78.60;;;;;;5049380;28;21006;-73
2021/07/06 04:16:06;;;;;;;28.50;26.90;;;20.10;78.50;;;;;;5049531;28;20992;-72
2021/07/06 04:18:33;;;;;;;25.73;24.33;;;20.00;78.80;;;;;;5057405;28;20843;-72
2021/07/06 04:21:00;;;;;;;25.63;24.20;;;20.00;78.70;;;;;;5048473;28;20908;-72
2021/07/06 04:23:27;;;;;;;32.53;30.83;;;20.00;79.30;;;;;;5049786;28;21115;-72
2021/07/06 04:25:54;;;;;;;26.03;24.53;;;19.90;79.40;;;;;;5048023;28;20482;-72
2021/07/06 04:28:22;;;;;;;31.97;30.37;;;19.90;79.60;;;;;;5049045;28;20461;-72
2021/07/06 04:30:49;;;;;;;26.70;25.20;;;19.90;79.70;;;;;;5049301;28;20467;-72
2021/07/06 04:33:16;;;;;;;30.60;28.80;;;19.90;79.70;;;;;;5048944;28;20844;-72
2021/07/06 04:35:43;;;;;;;28.43;26.83;;;19.90;79.80;;;;;;5054262;28;20506;-72
2021/07/06 04:38:10;;;;;;;27.20;25.50;;;20.00;79.70;;;;;;5049623;28;20511;-70
2021/07/06 04:40:37;;;;;;;28.30;26.30;;;20.00;79.40;;;;;;5050642;28;20836;-71
2021/07/06 04:43:06;;;;;;;27.77;26.10;;;20.00;79.70;;;;;;5048888;28;20864;-72
2021/07/06 04:45:34;;;;;;;32.10;30.17;;;20.00;79.40;;;;;;5051258;28;20573;-71
2021/07/06 04:48:01;;;;;;;29.50;27.50;;;20.00;79.50;;;;;;5055348;28;20561;-71
2021/07/06 04:50:28;;;;;;;31.27;29.27;;;20.10;78.90;;;;;;5048137;28;20882;-71
2021/07/06 04:52:55;;;;;;;30.83;28.93;;;20.10;79.20;;;;;;5048636;28;20466;-72
2021/07/06 04:55:22;;;;;;;27.90;26.20;;;20.30;79.10;;;;;;5049263;28;21053;-72
2021/07/06 04:57:49;;;;;;;31.70;29.90;;;20.40;78.80;;;;;;5055446;28;20574;-71
2021/07/06 05:00:17;;;;;;;27.40;25.93;;;20.50;78.30;;;;;;5057637;28;20976;-71
2021/07/06 05:02:47;;;;;;;31.23;29.33;;;20.50;77.90;;;;;;5047604;28;20465;-72
2021/07/06 05:05:14;;;;;;;30.30;28.60;;;20.60;78.00;;;;;;5048349;28;20997;-71
2021/07/06 05:07:41;;;;;;;29.00;27.03;;;20.70;78.00;;;;;;5044926;28;20909;-73
2021/07/06 05:10:11;;;;;;;26.80;25.30;;;20.90;77.80;;;;;;5047250;28;20519;-71
2021/07/06 05:12:38;;;;;;;28.93;27.13;;;20.90;77.50;;;;;;5048666;28;20624;-71
2021/07/06 05:15:07;;;;;;;27.37;25.60;;;20.90;77.30;;;;;;5047713;28;20512;-71
2021/07/06 05:17:35;;;;;;;30.23;28.53;;;20.90;77.00;;;;;;5049842;28;20458;-70
2021/07/06 05:20:04;;;;;;;27.47;25.87;;;20.90;76.90;;;;;;5048410;28;20455;-71
2021/07/06 05:22:31;;;;;;;30.43;28.53;;;20.80;77.20;;;;;;5037508;28;21258;-70
2021/07/06 05:24:58;;;;;;;34.67;32.37;;;20.70;77.40;;;;;;5043265;28;20573;-70
2021/07/06 05:27:25;;;;;;;30.23;28.30;;;20.70;77.60;;;;;;5046035;28;20897;-70
2021/07/06 05:29:52;;;;;;;30.70;28.50;;;20.70;77.70;;;;;;5051099;28;20462;-70
2021/07/06 05:32:21;;;;;;;29.67;28.00;;;20.70;77.70;;;;;;5053305;28;20481;-70
2021/07/06 05:34:49;;;;;;;29.27;27.50;;;20.70;77.40;;;;;;5044183;28;20493;-71
2021/07/06 05:37:17;;;;;;;29.20;27.30;;;20.70;77.50;;;;;;5042179;28;20458;-70
2021/07/06 05:39:44;;;;;;;28.73;26.87;;;20.80;77.20;;;;;;5048580;28;20488;-70
2021/07/06 05:42:11;;;;;;;29.03;27.30;;;20.80;76.70;;;;;;5056962;28;20553;-71
2021/07/06 05:44:39;;;;;;;29.27;27.40;;;20.80;76.70;;;;;;5049977;28;20507;-71
2021/07/06 05:47:07;;;;;;;30.03;28.40;;;20.90;76.90;;;;;;5040323;28;20946;-73
2021/07/06 05:49:34;;;;;;;31.10;29.50;;;20.90;77.30;;;;;;5041942;28;20529;-73
2021/07/06 05:52:02;;;;;;;29.27;27.47;;;21.10;76.90;;;;;;5045676;28;20466;-72
2021/07/06 05:54:30;;;;;;;29.40;27.70;;;21.30;76.70;;;;;;5043978;28;20506;-72
2021/07/06 05:56:57;;;;;;;26.70;25.20;;;21.40;76.50;;;;;;5045168;28;20809;-73
2021/07/06 05:59:24;;;;;;;29.80;28.07;;;21.40;76.40;;;;;;5044906;28;20479;-72
2021/07/06 06:01:51;;;;;;;30.67;28.90;;;21.50;76.30;;;;;;5046972;28;20458;-71
2021/07/06 06:04:18;;;;;;;31.40;29.20;;;21.60;76.00;;;;;;5044927;28;20478;-74
2021/07/06 06:06:46;;;;;;;29.80;27.97;;;21.60;76.20;;;;;;5042061;28;20558;-71
2021/07/06 06:09:16;;;;;;;28.73;27.03;;;21.80;76.20;;;;;;5044662;28;20497;-71
2021/07/06 06:11:44;;;;;;;27.27;25.73;;;21.90;76.50;;;;;;5043689;28;20908;-71
2021/07/06 06:14:11;;;;;;;27.67;26.17;;;21.90;75.50;;;;;;5045916;28;20532;-72
2021/07/06 06:16:39;;;;;;;28.50;26.67;;;21.90;75.40;;;;;;5048392;28;20463;-72
2021/07/06 06:19:05;;;;;;;28.23;26.53;;;22.00;75.30;;;;;;5048319;28;20477;-71
2021/07/06 06:21:33;;;;;;;29.80;28.00;;;22.20;74.70;;;;;;5045832;28;20476;-73
2021/07/06 06:24:00;;;;;;;29.80;27.93;;;22.30;74.50;;;;;;5045786;28;20457;-72
2021/07/06 06:26:27;;;;;;;28.17;26.47;;;22.40;74.40;;;;;;5055079;28;20463;-72
2021/07/06 06:28:56;;;;;;;29.10;27.50;;;22.50;74.00;;;;;;5051799;28;20467;-71
2021/07/06 06:31:22;;;;;;;27.50;25.70;;;22.70;73.40;;;;;;5055746;28;20455;-70
2021/07/06 06:33:49;;;;;;;28.60;27.00;;;22.90;72.80;;;;;;5049118;28;20490;-70
2021/07/06 06:36:17;;;;;;;29.70;28.20;;;23.00;72.10;;;;;;5054943;28;20459;-71
2021/07/06 06:38:43;;;;;;;29.10;27.37;;;23.10;71.60;;;;;;5051008;28;20475;-71
2021/07/06 06:41:11;;;;;;;29.27;27.67;;;23.30;71.10;;;;;;5058248;28;20491;-71
2021/07/06 06:43:39;;;;;;;31.17;29.47;;;23.40;70.20;;;;;;5044497;28;20461;-71
2021/07/06 06:46:07;;;;;;;28.37;26.70;;;23.60;69.40;;;;;;5044409;28;20560;-71
2021/07/06 06:48:34;;;;;;;28.27;26.23;;;23.60;68.90;;;;;;5041579;28;20458;-70
2021/07/06 06:51:01;;;;;;;27.83;26.23;;;23.70;68.50;;;;;;5039684;28;20459;-71
2021/07/06 06:53:28;;;;;;;28.87;27.27;;;23.70;68.40;;;;;;5043963;28;20458;-74
2021/07/06 06:55:56;;;;;;;27.70;26.20;;;23.80;68.10;;;;;;5057416;28;20474;-75
2021/07/06 06:58:22;;;;;;;28.60;27.00;;;23.90;68.20;;;;;;5051248;28;20888;-75
2021/07/06 07:00:49;;;;;;;29.43;27.73;;;24.00;68.00;;;;;;5056968;28;20474;-76
2021/07/06 07:03:18;;;;;;;30.03;28.33;;;24.00;67.50;;;;;;5041217;28;20562;-77
2021/07/06 07:05:45;;;;;;;29.40;27.90;;;24.20;67.70;;;;;;5053299;28;20611;-74
2021/07/06 07:08:12;;;;;;;27.50;25.90;;;24.20;67.30;;;;;;5056302;28;20450;-77
2021/07/06 07:10:40;;;;;;;28.13;26.53;;;24.30;67.00;;;;;;5053160;28;21176;-76
2021/07/06 07:13:07;;;;;;;29.60;27.90;;;24.40;66.50;;;;;;5046393;28;20470;-77
2021/07/06 07:15:34;;;;;;;30.50;28.80;;;24.70;66.70;;;;;;5043203;28;21032;-72
2021/07/06 07:18:01;;;;;;;28.57;26.77;;;24.90;66.10;;;;;;5041733;28;21192;-74
2021/07/06 07:20:30;;;;;;;30.20;28.60;;;25.20;64.70;;;;;;5055029;28;20454;-74
2021/07/06 07:22:57;;;;;;;29.37;27.57;;;25.50;64.40;;;;;;5032663;28;20459;-75
2021/07/06 07:25:24;;;;;;;29.07;27.37;;;25.70;63.90;;;;;;5048124;28;20489;-72
2021/07/06 07:27:52;;;;;;;30.40;28.40;;;25.80;63.40;;;;;;5045227;28;20469;-72
2021/07/06 07:30:21;;;;;;;30.73;28.90;;;25.90;63.20;;;;;;5060188;28;20459;-73
2021/07/06 07:32:49;;;;;;;28.80;27.10;;;25.90;63.00;;;;;;5050307;28;20466;-73
2021/07/06 07:35:17;;;;;;;30.97;29.17;;;25.90;63.20;;;;;;5051680;28;20600;-73
2021/07/06 07:37:46;;;;;;;31.73;29.90;;;26.00;63.10;;;;;;5062066;28;20491;-73
2021/07/06 07:40:15;;;;;;;30.80;29.10;;;26.10;63.20;;;;;;5047865;28;20828;-76
2021/07/06 07:42:42;;;;;;;31.83;30.03;;;26.20;63.10;;;;;;5058583;28;20509;-74
2021/07/06 07:45:10;;;;;;;29.70;27.90;;;26.40;62.30;;;;;;5061440;28;20478;-76
2021/07/06 07:47:37;;;;;;;30.07;28.07;;;26.60;62.80;;;;;;5046650;28;20495;-73
2021/07/06 07:50:05;;;;;;;31.73;29.90;;;26.70;61.60;;;;;;5050572;28;20960;-73
2021/07/06 07:52:34;;;;;;;29.30;27.40;;;26.80;61.40;;;;;;5051040;28;20507;-73
2021/07/06 07:55:03;;;;;;;30.60;28.70;;;26.80;61.20;;;;;;5049849;28;21558;-73
2021/07/06 07:57:30;;;;;;;29.43;27.63;;;27.00;61.30;;;;;;5056947;28;20465;-72
2021/07/06 07:59:57;;;;;;;31.03;29.23;;;27.10;60.30;;;;;;5055696;28;20485;-73
2021/07/06 08:02:25;;;;;;;30.90;29.10;;;27.30;59.80;;;;;;5051412;28;20447;-73
2021/07/06 08:04:52;;;;;;;32.70;30.60;;;27.40;59.70;;;;;;5049176;28;21154;-73
2021/07/06 08:07:19;;;;;;;33.40;31.40;;;27.40;59.40;;;;;;5049459;28;20463;-73
2021/07/06 08:09:46;;;;;;;31.80;30.00;;;27.30;59.70;;;;;;5048837;28;20444;-74
2021/07/06 08:12:15;;;;;;;30.50;28.80;;;27.40;59.70;;;;;;5059110;28;20857;-72
2021/07/06 08:14:42;;;;;;;31.03;29.23;;;27.30;59.90;;;;;;5048184;28;20919;-72
2021/07/06 08:17:09;;;;;;;31.83;29.97;;;27.40;60.00;;;;;;5041119;28;20984;-73
2021/07/06 08:19:36;;;;;;;31.03;29.30;;;27.30;60.20;;;;;;5048426;28;20487;-72
2021/07/06 08:22:03;;;;;;;28.70;27.00;;;27.30;60.40;;;;;;5062498;28;20454;-72
2021/07/06 08:24:30;;;;;;;29.70;27.77;;;27.30;59.90;;;;;;5050028;28;20514;-72
2021/07/06 08:26:57;;;;;;;30.27;28.50;;;27.40;60.00;;;;;;5049325;28;20497;-73
2021/07/06 08:29:27;;;;;;;31.87;30.07;;;27.40;59.90;;;;;;5049689;28;20453;-73
2021/07/06 08:31:54;;;;;;;30.70;28.73;;;27.50;59.80;;;;;;5052539;28;20466;-73
2021/07/06 08:34:21;;;;;;;30.70;29.00;;;27.70;59.60;;;;;;5049347;28;20479;-73
2021/07/06 08:36:48;;;;;;;30.33;28.63;;;27.80;58.70;;;;;;5046803;28;20542;-73
2021/07/06 08:39:15;;;;;;;29.60;27.90;;;28.00;58.70;;;;;;5049310;28;20500;-73
2021/07/06 08:41:42;;;;;;;30.73;29.03;;;28.20;58.10;;;;;;5062072;28;20516;-73
2021/07/06 08:44:10;;;;;;;30.00;28.30;;;28.20;57.90;;;;;;5045661;28;20550;-73
2021/07/06 08:46:39;;;;;;;30.20;28.40;;;28.40;57.60;;;;;;5048151;28;20459;-73
2021/07/06 08:49:07;;;;;;;31.30;29.50;;;28.50;56.60;;;;;;5064173;28;20461;-73
2021/07/06 08:51:35;;;;;;;32.70;30.70;;;28.50;57.10;;;;;;5067126;28;20461;-73
2021/07/06 08:54:02;;;;;;;32.77;30.83;;;28.50;57.30;;;;;;5055649;28;20451;-73
2021/07/06 08:56:30;;;;;;;31.03;29.13;;;28.50;57.40;;;;;;5054296;28;20477;-73
2021/07/06 08:58:57;;;;;;;30.93;29.13;;;28.50;57.60;;;;;;5048264;28;20479;-73
2021/07/06 09:01:28;;;;;;;34.00;32.23;;;28.50;57.70;;;;;;5060197;28;20545;-73
2021/07/06 09:03:58;;;;;;;31.80;30.00;;;28.60;56.90;;;;;;5052330;28;20470;-73
2021/07/06 09:06:26;;;;;;;31.30;29.53;;;28.70;56.80;;;;;;5052371;28;20459;-73
2021/07/06 09:09:13;;;;;;;30.83;28.90;;;28.80;56.60;;;;;;5033442;28;20535;-73
2021/07/06 09:11:45;;;;;;;32.33;30.63;;;28.80;56.30;;;;;;5059971;28;20461;-73
2021/07/06 09:14:12;;;;;;;30.57;28.87;;;28.70;56.50;;;;;;5049099;28;20478;-73
2021/07/06 09:16:39;;;;;;;30.90;29.10;;;28.40;56.30;;;;;;5047810;28;20458;-73
2021/07/06 09:19:20;;;;;;;31.50;29.70;;;28.20;57.20;;;;;;5052189;28;20475;-73
2021/07/06 09:21:47;;;;;;;31.03;29.23;;;28.10;57.50;;;;;;5049688;28;20490;-74
2021/07/06 09:24:25;;;;;;;30.23;28.63;;;27.90;58.10;;;;;;5048642;28;20889;-75
2021/07/06 09:26:52;;;;;;;31.80;30.00;;;27.50;58.90;;;;;;5049784;28;20469;-75
2021/07/06 09:29:24;;;;;;;33.00;31.00;;;27.00;60.30;;;;;;5048675;28;21232;-75
2021/07/06 09:31:51;;;;;;;33.03;30.90;;;26.60;62.70;;;;;;5057317;28;20545;-71
2021/07/06 09:34:20;;;;;;;33.60;31.70;;;25.10;67.50;;;;;;5047909;28;20502;-75
2021/07/06 09:36:48;;;;;;;31.80;29.90;;;24.10;70.90;;;;;;5052266;28;20450;-71
2021/07/06 09:39:19;;;;;;;30.70;29.00;;;23.70;72.30;;;;;;5052883;28;20568;-72
2021/07/06 09:42:01;;;;;;;31.93;29.83;;;23.60;72.40;;;;;;5061130;28;20553;-71
2021/07/06 09:44:30;;;;;;;29.97;28.27;;;23.30;73.20;;;;;;5028978;28;20478;-72
2021/07/06 09:47:02;;;;;;;30.93;29.03;;;23.40;72.70;;;;;;5049225;28;20545;-70
2021/07/06 09:49:32;;;;;;;28.87;27.27;;;23.40;72.80;;;;;;5048660;28;20461;-70
2021/07/06 09:52:10;;;;;;;28.10;26.60;;;23.30;72.10;;;;;;5050191;28;20565;-70
2021/07/06 09:54:39;;;;;;;30.30;28.60;;;22.80;72.70;;;;;;5047861;28;20573;-70
2021/07/06 09:57:27;;;;;;;26.80;25.17;;;23.00;72.30;;;;;;5054999;28;20447;-70
2021/07/06 10:00:02;;;;;;;30.43;28.70;;;23.10;72.00;;;;;;5036496;28;20584;-70
2021/07/06 10:02:31;;;;;;;29.73;28.03;;;22.90;71.80;;;;;;5059267;28;20446;-70
2021/07/06 10:05:05;;;;;;;30.07;28.37;;;22.80;72.20;;;;;;5052746;28;20474;-70
2021/07/06 10:07:32;;;;;;;27.40;25.90;;;22.70;72.70;;;;;;5050860;28;20595;-71
2021/07/06 10:09:59;;;;;;;26.80;25.30;;;22.70;73.10;;;;;;5035072;28;20456;-70
2021/07/06 10:12:26;;;;;;;27.67;26.17;;;22.90;72.20;;;;;;5059565;28;20512;-70
2021/07/06 10:14:54;;;;;;;27.97;26.00;;;23.10;71.60;;;;;;5050222;28;21228;-70
2021/07/06 10:17:21;;;;;;;29.20;27.60;;;23.30;71.20;;;;;;5057502;28;20461;-70
2021/07/06 10:19:49;;;;;;;28.83;27.33;;;23.60;70.10;;;;;;5049118;28;20500;-70
2021/07/06 10:22:18;;;;;;;27.40;25.90;;;24.10;69.00;;;;;;5043003;28;20487;-71
2021/07/06 10:24:47;;;;;;;28.90;27.30;;;24.70;67.10;;;;;;5050948;28;20550;-70
2021/07/06 10:27:17;;;;;;;27.30;25.80;;;24.30;67.10;;;;;;5058033;28;20475;-71
2021/07/06 10:29:45;;;;;;;29.43;27.83;;;24.20;67.70;;;;;;5051269;28;20845;-70
2021/07/06 10:32:39;;;;;;;27.90;26.40;;;24.10;67.70;;;;;;5071067;28;20545;-71
2021/07/06 10:35:08;;;;;;;27.50;26.00;;;24.20;67.90;;;;;;5050794;28;20479;-71
2021/07/06 10:37:38;;;;;;;26.80;25.40;;;24.40;67.80;;;;;;5054067;28;21019;-71
2021/07/06 10:40:17;;;;;;;27.40;25.80;;;24.80;66.50;;;;;;5052923;28;20561;-71
2021/07/06 10:42:49;;;;;;;26.20;24.80;;;25.10;66.20;;;;;;5068373;28;20846;-69
2021/07/06 10:45:24;;;;;;;31.17;29.50;;;25.20;66.30;;;;;;5047359;28;20486;-70
2021/07/06 10:47:52;;;;;;;31.53;29.80;;;24.90;66.70;;;;;;5050094;28;20836;-71
2021/07/06 10:50:52;;;;;;;29.07;27.27;;;24.20;68.90;;;;;;5049185;28;20530;-74
2021/07/06 10:53:25;;;;;;;29.80;28.10;;;24.20;69.50;;;;;;5036345;28;20982;-71
2021/07/06 10:56:01;;;;;;;28.90;27.20;;;24.30;69.20;;;;;;5051103;28;20475;-71
2021/07/06 10:58:53;;;;;;;27.30;25.80;;;24.30;69.60;;;;;;5045928;28;20466;-70
2021/07/06 11:02:06;;;;;;;29.73;28.13;;;24.50;69.00;;;;;;5054596;28;21306;-70
2021/07/06 11:05:09;;;;;;;31.23;29.40;;;24.90;68.20;;;;;;5038923;28;20478;-70
2021/07/06 11:07:57;;;;;;;28.27;26.67;;;25.60;67.10;;;;;;5040027;28;20541;-70
2021/07/06 11:10:53;;;;;;;28.40;26.90;;;26.10;66.30;;;;;;5048435;28;21018;-71
2021/07/06 11:13:30;;;;;;;29.47;27.87;;;26.20;65.30;;;;;;5016018;28;21016;-71
2021/07/06 11:16:00;;;;;;;29.17;27.53;;;26.30;63.30;;;;;;5049749;28;20469;-71
2021/07/06 11:18:47;;;;;;;28.87;27.27;;;25.90;63.10;;;;;;5052085;28;20941;-71
2021/07/06 11:21:36;;;;;;;29.60;27.90;;;25.70;63.80;;;;;;5044242;28;20518;-71
2021/07/06 11:24:18;;;;;;;28.23;26.73;;;25.90;64.40;;;;;;5050647;28;20450;-71
2021/07/06 11:26:47;;;;;;;29.93;28.33;;;26.20;64.10;;;;;;5051912;28;20543;-71
2021/07/06 11:29:25;;;;;;;34.70;33.00;;;26.50;63.40;;;;;;5051313;28;20538;-71
2021/07/06 11:32:12;;;;;;;29.00;27.43;;;26.50;62.40;;;;;;5056435;28;20929;-71
2021/07/06 11:34:40;;;;;;;29.20;27.50;;;26.90;62.20;;;;;;5045675;28;20471;-71
2021/07/06 11:37:11;;;;;;;28.90;27.40;;;27.00;62.30;;;;;;5054888;28;21083;-70
2021/07/06 11:39:38;;;;;;;30.23;28.53;;;27.20;60.60;;;;;;5049787;28;20981;-71
2021/07/06 11:42:07;;;;;;;28.80;27.10;;;27.30;60.50;;;;;;5051040;28;20534;-72
2021/07/06 11:44:34;;;;;;;29.50;27.90;;;27.20;60.50;;;;;;5050242;28;20475;-70
2021/07/06 11:47:09;;;;;;;30.73;29.03;;;27.10;60.50;;;;;;5051799;28;20557;-71
2021/07/06 11:49:36;;;;;;;29.70;28.10;;;26.70;61.40;;;;;;5050793;28;20478;-71
2021/07/06 11:52:03;;;;;;;29.67;28.07;;;26.10;62.60;;;;;;5065179;28;20533;-71
2021/07/06 11:54:30;;;;;;;27.80;26.20;;;26.10;62.90;;;;;;5050765;28;20473;-71
2021/07/06 11:57:03;;;;;;;29.00;27.40;;;25.80;63.80;;;;;;5049167;28;20802;-70
2021/07/06 11:59:31;;;;;;;30.87;29.27;;;25.60;64.70;;;;;;5049318;28;20469;-71
2021/07/06 12:02:06;;;;;;;28.30;26.80;;;25.70;65.10;;;;;;5044996;28;22768;-71
2021/07/06 12:04:34;;;;;;;31.00;29.40;;;25.80;65.10;;;;;;5049366;28;20478;-71
2021/07/06 12:07:05;;;;;;;30.40;28.80;;;25.90;65.50;;;;;;5046368;28;20550;-70
2021/07/06 12:09:32;;;;;;;29.13;27.50;;;25.80;65.00;;;;;;5031503;28;21288;-70
2021/07/06 12:12:10;;;;;;;27.30;25.90;;;25.70;65.60;;;;;;5048090;28;21298;-70
2021/07/06 12:14:44;;;;;;;27.30;25.90;;;25.70;64.70;;;;;;5046590;28;20475;-71
2021/07/06 12:17:12;;;;;;;27.30;25.80;;;25.60;65.30;;;;;;5045311;28;20564;-68
2021/07/06 12:19:39;;;;;;;30.40;28.40;;;25.60;65.80;;;;;;5043326;28;20988;-70
2021/07/06 12:22:05;;;;;;;29.20;27.50;;;25.90;65.60;;;;;;5047171;28;20955;-70
2021/07/06 12:24:33;;;;;;;27.80;26.30;;;26.40;65.00;;;;;;5048649;28;20546;-70
2021/07/06 12:27:01;;;;;;;29.10;27.53;;;26.70;63.40;;;;;;5049741;28;20477;-70
2021/07/06 12:29:28;;;;;;;31.47;29.77;;;26.80;63.10;;;;;;5048836;28;20546;-70
2021/07/06 12:31:58;;;;;;;30.10;28.50;;;26.90;62.80;;;;;;5063709;28;20476;-70
2021/07/06 12:34:35;;;;;;;31.60;29.90;;;26.90;62.70;;;;;;5047513;28;20524;-70
2021/07/06 12:37:02;;;;;;;30.60;28.90;;;27.10;62.10;;;;;;5047904;28;20549;-70
2021/07/06 12:39:32;;;;;;;28.73;27.23;;;27.10;62.60;;;;;;5047126;28;20442;-70